sensor_id;sensor_type;location;lat;lon;timestamp;temperature;humidity
21895;DHT22;11112;51.270;7.224;2023-02-12T00:02:23;9.00;99.90
21895;DHT22;11112;51.270;7.224;2023-02-12T00:04:51;9.00;99.90
21895;DHT22;11112;51.270;7.224;2023-02-12T00:07:18;9.00;99.90
21895;DHT22;11112;51.270;7.224;2023-02-12T00:09:45;9.00;99.90
21895;DHT22;11112;51.270;7.224;2023-02-12T00:12:13;9.00;99.90
21895;DHT22;11112;51.270;7.224;2023-02-12T00:14:41;9.00;99.90
21895;DHT22;11112;51.270;7.224;2023-02-12T00:17:14;9.00;99.90
21895;DHT22;11112;51.270;7.224;2023-02-12T00:19:41;9.00;99.90
21895;DHT22;11112;51.270;7.224;2023-02-12T00:22:09;9.00;99.90
21895;DHT22;11112;51.270;7.224;2023-02-12T00:24:36;9.00;99.90
21895;DHT22;11112;51.270;7.224;2023-02-12T00:27:03;9.00;99.90
21895;DHT22;11112;51.270;7.224;2023-02-12T00:29:30;9.00;99.90
21895;DHT22;11112;51.270;7.224;2023-02-12T00:31:58;9.00;99.90
21895;DHT22;11112;51.270;7.224;2023-02-12T00:34:27;9.00;99.90
21895;DHT22;11112;51.270;7.224;2023-02-12T00:36:54;9.00;99.90
21895;DHT22;11112;51.270;7.224;2023-02-12T00:39:21;9.00;99.90
21895;DHT22;11112;51.270;7.224;2023-02-12T00:41:48;9.00;99.90
21895;DHT22;11112;51.270;7.224;2023-02-12T00:44:15;9.00;99.90
21895;DHT22;11112;51.270;7.224;2023-02-12T00:46:42;9.00;99.90
21895;DHT22;11112;51.270;7.224;2023-02-12T00:49:09;9.10;99.90
21895;DHT22;11112;51.270;7.224;2023-02-12T00:51:39;9.00;99.90
21895;DHT22;11112;51.270;7.224;2023-02-12T00:54:07;9.00;99.90
21895;DHT22;11112;51.270;7.224;2023-02-12T00:56:34;9.00;99.90
21895;DHT22;11112;51.270;7.224;2023-02-12T00:59:01;9.00;99.90
21895;DHT22;11112;51.270;7.224;2023-02-12T01:01:28;9.00;99.90
21895;DHT22;11112;51.270;7.224;2023-02-12T01:03:55;9.00;99.90
21895;DHT22;11112;51.270;7.224;2023-02-12T01:06:23;9.00;99.90
21895;DHT22;11112;51.270;7.224;2023-02-12T01:08:52;9.00;99.90
21895;DHT22;11112;51.270;7.224;2023-02-12T01:11:19;9.00;99.90
21895;DHT22;11112;51.270;7.224;2023-02-12T01:13:47;9.00;99.90
21895;DHT22;11112;51.270;7.224;2023-02-12T01:16:16;9.00;99.90
21895;DHT22;11112;51.270;7.224;2023-02-12T01:18:45;9.00;99.90
21895;DHT22;11112;51.270;7.224;2023-02-12T01:21:14;9.00;99.90
21895;DHT22;11112;51.270;7.224;2023-02-12T01:23:42;9.00;99.90
21895;DHT22;11112;51.270;7.224;2023-02-12T01:26:11;9.00;99.90
21895;DHT22;11112;51.270;7.224;2023-02-12T01:28:41;9.00;99.90
21895;DHT22;11112;51.270;7.224;2023-02-12T01:31:10;9.00;99.90
21895;DHT22;11112;51.270;7.224;2023-02-12T01:33:39;9.00;99.90
21895;DHT22;11112;51.270;7.224;2023-02-12T01:36:07;9.00;99.90
21895;DHT22;11112;51.270;7.224;2023-02-12T01:38:35;9.00;99.90
21895;DHT22;11112;51.270;7.224;2023-02-12T01:41:04;9.00;99.90
21895;DHT22;11112;51.270;7.224;2023-02-12T01:43:34;9.00;99.90
21895;DHT22;11112;51.270;7.224;2023-02-12T01:46:03;8.90;99.90
21895;DHT22;11112;51.270;7.224;2023-02-12T01:48:36;8.90;99.90
21895;DHT22;11112;51.270;7.224;2023-02-12T01:51:06;9.00;99.90
21895;DHT22;11112;51.270;7.224;2023-02-12T01:53:38;8.90;99.90
21895;DHT22;11112;51.270;7.224;2023-02-12T01:56:09;9.00;99.90
21895;DHT22;11112;51.270;7.224;2023-02-12T01:58:39;9.00;99.90
21895;DHT22;11112;51.270;7.224;2023-02-12T02:01:12;9.00;99.90
21895;DHT22;11112;51.270;7.224;2023-02-12T02:03:41;9.00;99.90
21895;DHT22;11112;51.270;7.224;2023-02-12T02:06:12;9.00;99.90
21895;DHT22;11112;51.270;7.224;2023-02-12T02:08:41;9.00;99.90
21895;DHT22;11112;51.270;7.224;2023-02-12T02:11:08;9.00;99.90
21895;DHT22;11112;51.270;7.224;2023-02-12T02:13:51;9.00;99.90
21895;DHT22;11112;51.270;7.224;2023-02-12T02:16:39;9.00;99.90
21895;DHT22;11112;51.270;7.224;2023-02-12T02:19:12;9.00;99.90
21895;DHT22;11112;51.270;7.224;2023-02-12T02:22:15;9.00;99.90
21895;DHT22;11112;51.270;7.224;2023-02-12T02:28:18;9.00;99.90
21895;DHT22;11112;51.270;7.224;2023-02-12T02:30:58;9.00;99.90
21895;DHT22;11112;51.270;7.224;2023-02-12T02:33:35;8.90;99.90
21895;DHT22;11112;51.270;7.224;2023-02-12T02:36:13;8.90;99.90
21895;DHT22;11112;51.270;7.224;2023-02-12T02:38:50;8.90;99.90
21895;DHT22;11112;51.270;7.224;2023-02-12T02:41:27;8.90;99.90
21895;DHT22;11112;51.270;7.224;2023-02-12T02:44:04;8.90;99.90
21895;DHT22;11112;51.270;7.224;2023-02-12T02:46:46;8.90;99.90
21895;DHT22;11112;51.270;7.224;2023-02-12T02:49:18;8.90;99.90
21895;DHT22;11112;51.270;7.224;2023-02-12T02:51:52;8.90;99.90
21895;DHT22;11112;51.270;7.224;2023-02-12T02:54:25;8.90;99.90
21895;DHT22;11112;51.270;7.224;2023-02-12T02:56:58;8.90;99.90
21895;DHT22;11112;51.270;7.224;2023-02-12T02:59:46;8.90;99.90
21895;DHT22;11112;51.270;7.224;2023-02-12T03:02:20;8.90;99.90
21895;DHT22;11112;51.270;7.224;2023-02-12T03:04:52;8.90;99.90
21895;DHT22;11112;51.270;7.224;2023-02-12T03:07:26;8.90;99.90
21895;DHT22;11112;51.270;7.224;2023-02-12T03:09:59;8.90;99.90
21895;DHT22;11112;51.270;7.224;2023-02-12T03:12:32;8.90;99.90
21895;DHT22;11112;51.270;7.224;2023-02-12T03:15:07;8.90;99.90
21895;DHT22;11112;51.270;7.224;2023-02-12T03:17:40;8.90;99.90
21895;DHT22;11112;51.270;7.224;2023-02-12T03:20:13;8.90;99.90
21895;DHT22;11112;51.270;7.224;2023-02-12T03:22:48;8.90;99.90
21895;DHT22;11112;51.270;7.224;2023-02-12T03:25:19;8.90;99.90
21895;DHT22;11112;51.270;7.224;2023-02-12T03:27:51;8.90;99.90
21895;DHT22;11112;51.270;7.224;2023-02-12T03:30:25;8.90;99.90
21895;DHT22;11112;51.270;7.224;2023-02-12T03:33:06;9.00;99.90
21895;DHT22;11112;51.270;7.224;2023-02-12T03:35:41;8.90;99.90
21895;DHT22;11112;51.270;7.224;2023-02-12T03:38:25;9.00;99.90
21895;DHT22;11112;51.270;7.224;2023-02-12T03:41:03;9.00;99.90
21895;DHT22;11112;51.270;7.224;2023-02-12T03:43:33;9.00;99.90
21895;DHT22;11112;51.270;7.224;2023-02-12T03:46:12;8.90;99.90
21895;DHT22;11112;51.270;7.224;2023-02-12T03:48:49;9.00;99.90
21895;DHT22;11112;51.270;7.224;2023-02-12T03:51:27;9.00;99.90
21895;DHT22;11112;51.270;7.224;2023-02-12T03:53:57;9.00;99.90
21895;DHT22;11112;51.270;7.224;2023-02-12T03:56:27;8.90;99.90
21895;DHT22;11112;51.270;7.224;2023-02-12T03:58:58;8.90;99.90
21895;DHT22;11112;51.270;7.224;2023-02-12T04:01:26;8.90;99.90
21895;DHT22;11112;51.270;7.224;2023-02-12T04:03:56;9.00;99.90
21895;DHT22;11112;51.270;7.224;2023-02-12T04:06:26;8.90;99.90
21895;DHT22;11112;51.270;7.224;2023-02-12T04:08:57;8.90;99.90
21895;DHT22;11112;51.270;7.224;2023-02-12T04:11:32;8.90;99.90
21895;DHT22;11112;51.270;7.224;2023-02-12T04:14:14;8.90;99.90
21895;DHT22;11112;51.270;7.224;2023-02-12T04:16:50;8.90;99.90
21895;DHT22;11112;51.270;7.224;2023-02-12T04:19:28;8.90;99.90
21895;DHT22;11112;51.270;7.224;2023-02-12T04:22:10;8.90;99.90
21895;DHT22;11112;51.270;7.224;2023-02-12T04:24:48;8.90;99.90
21895;DHT22;11112;51.270;7.224;2023-02-12T04:27:21;8.90;99.90
21895;DHT22;11112;51.270;7.224;2023-02-12T04:29:56;8.90;99.90
21895;DHT22;11112;51.270;7.224;2023-02-12T04:32:31;8.90;99.90
21895;DHT22;11112;51.270;7.224;2023-02-12T04:35:07;8.90;99.90
21895;DHT22;11112;51.270;7.224;2023-02-12T04:37:42;8.90;99.90
21895;DHT22;11112;51.270;7.224;2023-02-12T04:40:14;8.90;99.90
21895;DHT22;11112;51.270;7.224;2023-02-12T04:42:44;8.90;99.90
21895;DHT22;11112;51.270;7.224;2023-02-12T04:45:14;8.90;99.90
21895;DHT22;11112;51.270;7.224;2023-02-12T04:47:43;8.90;99.90
21895;DHT22;11112;51.270;7.224;2023-02-12T04:50:13;8.90;99.90
21895;DHT22;11112;51.270;7.224;2023-02-12T04:52:40;8.90;99.90
21895;DHT22;11112;51.270;7.224;2023-02-12T04:55:08;8.90;99.90
21895;DHT22;11112;51.270;7.224;2023-02-12T04:57:35;9.00;99.90
21895;DHT22;11112;51.270;7.224;2023-02-12T05:00:03;8.90;99.90
21895;DHT22;11112;51.270;7.224;2023-02-12T05:02:33;8.90;99.90
21895;DHT22;11112;51.270;7.224;2023-02-12T05:05:00;8.90;99.90
21895;DHT22;11112;51.270;7.224;2023-02-12T05:07:29;8.90;99.90
21895;DHT22;11112;51.270;7.224;2023-02-12T05:09:57;8.90;99.90
21895;DHT22;11112;51.270;7.224;2023-02-12T05:12:24;8.90;99.90
21895;DHT22;11112;51.270;7.224;2023-02-12T05:14:51;8.90;99.90
21895;DHT22;11112;51.270;7.224;2023-02-12T05:17:21;8.90;99.90
21895;DHT22;11112;51.270;7.224;2023-02-12T05:19:48;8.90;99.90
21895;DHT22;11112;51.270;7.224;2023-02-12T05:22:15;8.90;99.90
21895;DHT22;11112;51.270;7.224;2023-02-12T05:24:44;8.90;99.90
21895;DHT22;11112;51.270;7.224;2023-02-12T05:27:11;8.90;99.90
21895;DHT22;11112;51.270;7.224;2023-02-12T05:29:39;8.90;99.90
21895;DHT22;11112;51.270;7.224;2023-02-12T05:32:07;8.90;99.90
21895;DHT22;11112;51.270;7.224;2023-02-12T05:34:35;8.90;99.90
21895;DHT22;11112;51.270;7.224;2023-02-12T05:37:02;8.90;99.90
21895;DHT22;11112;51.270;7.224;2023-02-12T05:39:29;8.90;99.90
21895;DHT22;11112;51.270;7.224;2023-02-12T05:41:58;8.90;99.90
21895;DHT22;11112;51.270;7.224;2023-02-12T05:44:25;8.90;99.90
21895;DHT22;11112;51.270;7.224;2023-02-12T05:46:52;8.90;99.90
21895;DHT22;11112;51.270;7.224;2023-02-12T05:49:20;8.90;99.90
21895;DHT22;11112;51.270;7.224;2023-02-12T05:51:47;8.90;99.90
21895;DHT22;11112;51.270;7.224;2023-02-12T05:54:15;8.90;99.90
21895;DHT22;11112;51.270;7.224;2023-02-12T05:56:43;8.90;99.90
21895;DHT22;11112;51.270;7.224;2023-02-12T05:59:16;8.90;99.90
21895;DHT22;11112;51.270;7.224;2023-02-12T06:01:46;8.90;99.90
21895;DHT22;11112;51.270;7.224;2023-02-12T06:04:16;8.90;99.90
21895;DHT22;11112;51.270;7.224;2023-02-12T06:06:48;8.90;99.90
21895;DHT22;11112;51.270;7.224;2023-02-12T06:09:15;8.90;99.90
21895;DHT22;11112;51.270;7.224;2023-02-12T06:11:43;9.00;99.90
21895;DHT22;11112;51.270;7.224;2023-02-12T06:14:15;8.90;99.90
21895;DHT22;11112;51.270;7.224;2023-02-12T06:16:44;8.90;99.90
21895;DHT22;11112;51.270;7.224;2023-02-12T06:19:15;8.90;99.90
21895;DHT22;11112;51.270;7.224;2023-02-12T06:21:42;8.90;99.90
21895;DHT22;11112;51.270;7.224;2023-02-12T06:24:11;8.90;99.90
21895;DHT22;11112;51.270;7.224;2023-02-12T06:26:39;8.90;99.90
21895;DHT22;11112;51.270;7.224;2023-02-12T06:29:07;8.90;99.90
21895;DHT22;11112;51.270;7.224;2023-02-12T06:31:36;8.90;99.90
21895;DHT22;11112;51.270;7.224;2023-02-12T06:34:05;8.90;99.90
21895;DHT22;11112;51.270;7.224;2023-02-12T06:36:36;8.90;99.90
21895;DHT22;11112;51.270;7.224;2023-02-12T06:39:04;8.90;99.90
21895;DHT22;11112;51.270;7.224;2023-02-12T06:41:32;8.90;99.90
21895;DHT22;11112;51.270;7.224;2023-02-12T06:43:59;8.90;99.90
21895;DHT22;11112;51.270;7.224;2023-02-12T06:46:26;8.90;99.90
21895;DHT22;11112;51.270;7.224;2023-02-12T06:48:56;8.90;99.90
21895;DHT22;11112;51.270;7.224;2023-02-12T06:51:25;8.90;99.90
21895;DHT22;11112;51.270;7.224;2023-02-12T06:53:55;8.90;99.90
21895;DHT22;11112;51.270;7.224;2023-02-12T06:56:24;8.90;99.90
21895;DHT22;11112;51.270;7.224;2023-02-12T06:58:53;8.90;99.90
21895;DHT22;11112;51.270;7.224;2023-02-12T07:01:27;8.90;99.90
21895;DHT22;11112;51.270;7.224;2023-02-12T07:03:58;8.90;99.90
21895;DHT22;11112;51.270;7.224;2023-02-12T07:06:27;8.90;99.90
21895;DHT22;11112;51.270;7.224;2023-02-12T07:08:55;8.90;99.90
21895;DHT22;11112;51.270;7.224;2023-02-12T07:11:24;8.90;99.90
21895;DHT22;11112;51.270;7.224;2023-02-12T07:13:52;8.90;99.90
21895;DHT22;11112;51.270;7.224;2023-02-12T07:16:20;8.90;99.90
21895;DHT22;11112;51.270;7.224;2023-02-12T07:18:50;8.90;99.90
21895;DHT22;11112;51.270;7.224;2023-02-12T07:21:20;8.90;99.90
21895;DHT22;11112;51.270;7.224;2023-02-12T07:23:48;8.90;99.90
21895;DHT22;11112;51.270;7.224;2023-02-12T07:26:18;8.90;99.90
21895;DHT22;11112;51.270;7.224;2023-02-12T07:28:47;8.90;99.90
21895;DHT22;11112;51.270;7.224;2023-02-12T07:31:16;8.90;99.90
21895;DHT22;11112;51.270;7.224;2023-02-12T07:33:45;8.90;99.90
21895;DHT22;11112;51.270;7.224;2023-02-12T07:36:15;8.90;99.90
21895;DHT22;11112;51.270;7.224;2023-02-12T07:38:46;8.90;99.90
21895;DHT22;11112;51.270;7.224;2023-02-12T07:41:16;8.90;99.90
21895;DHT22;11112;51.270;7.224;2023-02-12T07:43:47;8.90;99.90
21895;DHT22;11112;51.270;7.224;2023-02-12T07:46:17;8.90;99.90
21895;DHT22;11112;51.270;7.224;2023-02-12T07:48:46;9.00;99.90
21895;DHT22;11112;51.270;7.224;2023-02-12T07:51:15;8.90;99.90
21895;DHT22;11112;51.270;7.224;2023-02-12T07:53:44;8.90;99.90
21895;DHT22;11112;51.270;7.224;2023-02-12T07:56:15;8.90;99.90
21895;DHT22;11112;51.270;7.224;2023-02-12T07:58:45;9.00;99.90
21895;DHT22;11112;51.270;7.224;2023-02-12T08:01:15;9.00;99.90
21895;DHT22;11112;51.270;7.224;2023-02-12T08:03:44;9.00;99.90
21895;DHT22;11112;51.270;7.224;2023-02-12T08:06:14;9.00;99.90
21895;DHT22;11112;51.270;7.224;2023-02-12T08:08:43;9.00;99.90
21895;DHT22;11112;51.270;7.224;2023-02-12T08:11:13;9.00;99.90
21895;DHT22;11112;51.270;7.224;2023-02-12T08:13:43;9.00;99.90
21895;DHT22;11112;51.270;7.224;2023-02-12T08:16:12;9.00;99.90
21895;DHT22;11112;51.270;7.224;2023-02-12T08:18:40;9.00;99.90
21895;DHT22;11112;51.270;7.224;2023-02-12T08:21:09;9.10;99.90
21895;DHT22;11112;51.270;7.224;2023-02-12T08:23:37;9.10;99.90
21895;DHT22;11112;51.270;7.224;2023-02-12T08:26:07;9.10;99.90
21895;DHT22;11112;51.270;7.224;2023-02-12T08:28:39;9.10;99.90
21895;DHT22;11112;51.270;7.224;2023-02-12T08:31:10;9.10;99.90
21895;DHT22;11112;51.270;7.224;2023-02-12T08:33:39;9.10;99.90
21895;DHT22;11112;51.270;7.224;2023-02-12T08:36:09;9.10;99.90
21895;DHT22;11112;51.270;7.224;2023-02-12T08:38:39;9.10;99.90
21895;DHT22;11112;51.270;7.224;2023-02-12T08:41:09;9.10;99.90
21895;DHT22;11112;51.270;7.224;2023-02-12T08:43:41;9.10;99.90
21895;DHT22;11112;51.270;7.224;2023-02-12T08:46:10;9.10;99.90
21895;DHT22;11112;51.270;7.224;2023-02-12T08:48:39;9.20;99.90
21895;DHT22;11112;51.270;7.224;2023-02-12T08:51:09;9.20;99.90
21895;DHT22;11112;51.270;7.224;2023-02-12T08:53:40;9.20;99.90
21895;DHT22;11112;51.270;7.224;2023-02-12T08:56:10;9.20;99.90
21895;DHT22;11112;51.270;7.224;2023-02-12T08:58:39;9.20;99.90
21895;DHT22;11112;51.270;7.224;2023-02-12T09:01:09;9.20;99.90
21895;DHT22;11112;51.270;7.224;2023-02-12T09:03:38;9.20;99.90
21895;DHT22;11112;51.270;7.224;2023-02-12T09:06:06;9.20;99.90
21895;DHT22;11112;51.270;7.224;2023-02-12T09:08:36;9.20;99.90
21895;DHT22;11112;51.270;7.224;2023-02-12T09:11:06;9.20;99.90
21895;DHT22;11112;51.270;7.224;2023-02-12T09:13:35;9.20;99.90
21895;DHT22;11112;51.270;7.224;2023-02-12T09:16:06;9.30;99.90
21895;DHT22;11112;51.270;7.224;2023-02-12T09:18:35;9.30;99.90
21895;DHT22;11112;51.270;7.224;2023-02-12T09:21:04;9.30;99.90
21895;DHT22;11112;51.270;7.224;2023-02-12T09:23:33;9.30;99.90
21895;DHT22;11112;51.270;7.224;2023-02-12T09:26:03;9.30;99.90
21895;DHT22;11112;51.270;7.224;2023-02-12T09:28:31;9.30;99.90
21895;DHT22;11112;51.270;7.224;2023-02-12T09:31:05;9.30;99.90
21895;DHT22;11112;51.270;7.224;2023-02-12T09:33:33;9.30;99.90
21895;DHT22;11112;51.270;7.224;2023-02-12T09:36:06;9.30;99.90
21895;DHT22;11112;51.270;7.224;2023-02-12T09:38:35;9.30;99.90
21895;DHT22;11112;51.270;7.224;2023-02-12T09:41:33;9.40;99.90
21895;DHT22;11112;51.270;7.224;2023-02-12T09:44:32;9.40;99.90
21895;DHT22;11112;51.270;7.224;2023-02-12T09:47:14;9.40;99.90
21895;DHT22;11112;51.270;7.224;2023-02-12T09:49:58;9.50;99.90
21895;DHT22;11112;51.270;7.224;2023-02-12T09:52:33;9.40;99.90
21895;DHT22;11112;51.270;7.224;2023-02-12T09:55:01;9.50;99.90
21895;DHT22;11112;51.270;7.224;2023-02-12T09:57:30;9.50;99.90
21895;DHT22;11112;51.270;7.224;2023-02-12T10:00:03;9.50;99.90
21895;DHT22;11112;51.270;7.224;2023-02-12T10:02:34;9.50;99.90
21895;DHT22;11112;51.270;7.224;2023-02-12T10:05:03;9.60;99.90
21895;DHT22;11112;51.270;7.224;2023-02-12T10:07:47;9.60;99.90
21895;DHT22;11112;51.270;7.224;2023-02-12T10:10:28;9.60;99.90
21895;DHT22;11112;51.270;7.224;2023-02-12T10:13:04;9.60;99.90
21895;DHT22;11112;51.270;7.224;2023-02-12T10:15:37;9.60;99.90
21895;DHT22;11112;51.270;7.224;2023-02-12T10:18:20;9.70;99.90
21895;DHT22;11112;51.270;7.224;2023-02-12T10:21:10;9.60;99.90
21895;DHT22;11112;51.270;7.224;2023-02-12T10:23:59;9.60;99.90
21895;DHT22;11112;51.270;7.224;2023-02-12T10:26:46;9.60;99.90
21895;DHT22;11112;51.270;7.224;2023-02-12T10:29:18;9.70;99.90
21895;DHT22;11112;51.270;7.224;2023-02-12T10:31:52;9.70;99.90
21895;DHT22;11112;51.270;7.224;2023-02-12T10:34:27;9.60;99.90
21895;DHT22;11112;51.270;7.224;2023-02-12T10:37:02;9.70;99.90
21895;DHT22;11112;51.270;7.224;2023-02-12T10:39:30;9.60;99.90
21895;DHT22;11112;51.270;7.224;2023-02-12T10:42:08;9.70;99.90
21895;DHT22;11112;51.270;7.224;2023-02-12T10:44:37;9.70;99.90
21895;DHT22;11112;51.270;7.224;2023-02-12T10:47:11;9.70;99.90
21895;DHT22;11112;51.270;7.224;2023-02-12T10:49:43;9.70;99.90
21895;DHT22;11112;51.270;7.224;2023-02-12T10:52:16;9.70;99.90
21895;DHT22;11112;51.270;7.224;2023-02-12T10:54:48;9.70;99.90
21895;DHT22;11112;51.270;7.224;2023-02-12T10:57:20;9.70;99.90
21895;DHT22;11112;51.270;7.224;2023-02-12T10:59:50;9.70;99.90
21895;DHT22;11112;51.270;7.224;2023-02-12T11:02:24;9.70;99.90
21895;DHT22;11112;51.270;7.224;2023-02-12T11:04:55;9.70;99.90
21895;DHT22;11112;51.270;7.224;2023-02-12T11:07:25;9.70;99.90
21895;DHT22;11112;51.270;7.224;2023-02-12T11:09:54;9.80;99.90
21895;DHT22;11112;51.270;7.224;2023-02-12T11:12:32;9.80;99.90
21895;DHT22;11112;51.270;7.224;2023-02-12T11:15:03;9.70;99.90
21895;DHT22;11112;51.270;7.224;2023-02-12T11:17:44;9.70;99.90
21895;DHT22;11112;51.270;7.224;2023-02-12T11:20:25;9.80;99.90
21895;DHT22;11112;51.270;7.224;2023-02-12T11:22:56;9.80;99.90
21895;DHT22;11112;51.270;7.224;2023-02-12T11:25:27;9.80;99.90
21895;DHT22;11112;51.270;7.224;2023-02-12T11:28:15;9.80;99.90
21895;DHT22;11112;51.270;7.224;2023-02-12T11:30:49;9.80;99.90
21895;DHT22;11112;51.270;7.224;2023-02-12T11:33:25;9.80;99.90
21895;DHT22;11112;51.270;7.224;2023-02-12T11:36:02;9.80;99.90
21895;DHT22;11112;51.270;7.224;2023-02-12T11:38:35;9.80;99.90
21895;DHT22;11112;51.270;7.224;2023-02-12T11:41:16;9.80;99.90
21895;DHT22;11112;51.270;7.224;2023-02-12T11:43:50;9.80;99.90
21895;DHT22;11112;51.270;7.224;2023-02-12T11:46:22;9.90;99.90
21895;DHT22;11112;51.270;7.224;2023-02-12T11:48:52;9.90;99.90
21895;DHT22;11112;51.270;7.224;2023-02-12T11:51:25;9.90;99.90
21895;DHT22;11112;51.270;7.224;2023-02-12T11:53:58;9.90;99.90
21895;DHT22;11112;51.270;7.224;2023-02-12T11:56:41;9.90;99.90
21895;DHT22;11112;51.270;7.224;2023-02-12T11:59:20;9.90;99.90
21895;DHT22;11112;51.270;7.224;2023-02-12T12:01:59;9.90;99.90
21895;DHT22;11112;51.270;7.224;2023-02-12T12:04:32;9.90;99.90
21895;DHT22;11112;51.270;7.224;2023-02-12T12:07:07;9.90;99.90
21895;DHT22;11112;51.270;7.224;2023-02-12T12:09:41;9.90;99.90
21895;DHT22;11112;51.270;7.224;2023-02-12T12:12:16;9.90;99.90
21895;DHT22;11112;51.270;7.224;2023-02-12T12:14:49;9.90;99.90
21895;DHT22;11112;51.270;7.224;2023-02-12T12:17:42;9.90;99.90
21895;DHT22;11112;51.270;7.224;2023-02-12T12:20:30;9.90;99.90
21895;DHT22;11112;51.270;7.224;2023-02-12T12:23:03;9.90;99.90
21895;DHT22;11112;51.270;7.224;2023-02-12T12:25:41;9.90;99.90
21895;DHT22;11112;51.270;7.224;2023-02-12T12:28:26;9.90;99.90
21895;DHT22;11112;51.270;7.224;2023-02-12T12:31:05;9.90;99.90
21895;DHT22;11112;51.270;7.224;2023-02-12T12:33:39;9.90;99.90
21895;DHT22;11112;51.270;7.224;2023-02-12T12:36:27;9.90;99.90
21895;DHT22;11112;51.270;7.224;2023-02-12T12:39:10;9.90;99.90
21895;DHT22;11112;51.270;7.224;2023-02-12T12:41:54;9.90;99.90
21895;DHT22;11112;51.270;7.224;2023-02-12T12:44:44;9.90;99.90
21895;DHT22;11112;51.270;7.224;2023-02-12T12:47:50;9.90;99.90
21895;DHT22;11112;51.270;7.224;2023-02-12T12:50:36;9.90;99.90
21895;DHT22;11112;51.270;7.224;2023-02-12T12:53:20;9.90;99.90
21895;DHT22;11112;51.270;7.224;2023-02-12T12:56:26;10.00;99.90
21895;DHT22;11112;51.270;7.224;2023-02-12T12:59:25;9.90;99.90
21895;DHT22;11112;51.270;7.224;2023-02-12T13:02:43;10.00;99.90
21895;DHT22;11112;51.270;7.224;2023-02-12T13:05:55;10.00;99.90
21895;DHT22;11112;51.270;7.224;2023-02-12T13:11:44;10.00;99.90
21895;DHT22;11112;51.270;7.224;2023-02-12T13:14:28;9.90;99.90
21895;DHT22;11112;51.270;7.224;2023-02-12T13:17:12;9.90;99.90
21895;DHT22;11112;51.270;7.224;2023-02-12T13:19:52;10.00;99.90
21895;DHT22;11112;51.270;7.224;2023-02-12T13:22:30;10.00;99.90
21895;DHT22;11112;51.270;7.224;2023-02-12T13:25:05;10.00;99.90
21895;DHT22;11112;51.270;7.224;2023-02-12T13:27:44;10.00;99.90
21895;DHT22;11112;51.270;7.224;2023-02-12T13:30:19;10.00;99.90
21895;DHT22;11112;51.270;7.224;2023-02-12T13:32:54;10.00;99.90
21895;DHT22;11112;51.270;7.224;2023-02-12T13:35:29;10.00;99.90
21895;DHT22;11112;51.270;7.224;2023-02-12T13:37:59;10.00;99.90
21895;DHT22;11112;51.270;7.224;2023-02-12T13:40:31;10.00;99.90
21895;DHT22;11112;51.270;7.224;2023-02-12T13:43:08;10.10;99.90
21895;DHT22;11112;51.270;7.224;2023-02-12T13:45:49;10.00;99.90
21895;DHT22;11112;51.270;7.224;2023-02-12T13:48:33;10.00;99.90
21895;DHT22;11112;51.270;7.224;2023-02-12T13:51:16;10.00;99.90
21895;DHT22;11112;51.270;7.224;2023-02-12T13:53:57;10.00;99.90
21895;DHT22;11112;51.270;7.224;2023-02-12T13:56:39;10.10;99.90
21895;DHT22;11112;51.270;7.224;2023-02-12T14:05:26;10.10;99.90
21895;DHT22;11112;51.270;7.224;2023-02-12T14:08:00;10.10;99.90
21895;DHT22;11112;51.270;7.224;2023-02-12T14:10:33;10.10;99.90
21895;DHT22;11112;51.270;7.224;2023-02-12T14:13:22;10.10;99.90
21895;DHT22;11112;51.270;7.224;2023-02-12T14:16:18;10.10;99.90
21895;DHT22;11112;51.270;7.224;2023-02-12T14:18:50;10.00;99.90
21895;DHT22;11112;51.270;7.224;2023-02-12T14:21:42;10.00;99.90
21895;DHT22;11112;51.270;7.224;2023-02-12T14:24:47;10.00;99.90
21895;DHT22;11112;51.270;7.224;2023-02-12T14:27:40;10.00;99.90
21895;DHT22;11112;51.270;7.224;2023-02-12T14:30:26;10.00;99.90
21895;DHT22;11112;51.270;7.224;2023-02-12T14:33:22;10.00;99.90
21895;DHT22;11112;51.270;7.224;2023-02-12T14:36:17;10.10;99.90
21895;DHT22;11112;51.270;7.224;2023-02-12T14:38:57;10.00;99.90
21895;DHT22;11112;51.270;7.224;2023-02-12T14:41:36;10.10;99.90
21895;DHT22;11112;51.270;7.224;2023-02-12T14:44:45;10.00;99.90
21895;DHT22;11112;51.270;7.224;2023-02-12T14:47:50;10.00;99.90
21895;DHT22;11112;51.270;7.224;2023-02-12T14:50:29;10.00;99.90
21895;DHT22;11112;51.270;7.224;2023-02-12T14:53:20;10.00;99.90
21895;DHT22;11112;51.270;7.224;2023-02-12T14:55:52;10.10;99.90
21895;DHT22;11112;51.270;7.224;2023-02-12T14:58:22;10.00;99.90
21895;DHT22;11112;51.270;7.224;2023-02-12T15:00:53;10.00;99.90
21895;DHT22;11112;51.270;7.224;2023-02-12T15:03:26;10.00;99.90
21895;DHT22;11112;51.270;7.224;2023-02-12T15:06:05;10.00;99.90
21895;DHT22;11112;51.270;7.224;2023-02-12T15:08:41;10.10;99.90
21895;DHT22;11112;51.270;7.224;2023-02-12T15:11:37;10.10;99.90
21895;DHT22;11112;51.270;7.224;2023-02-12T15:14:14;10.00;99.90
21895;DHT22;11112;51.270;7.224;2023-02-12T15:16:49;10.00;99.90
21895;DHT22;11112;51.270;7.224;2023-02-12T15:19:30;10.10;99.90
21895;DHT22;11112;51.270;7.224;2023-02-12T15:22:02;10.10;99.90
21895;DHT22;11112;51.270;7.224;2023-02-12T15:24:29;10.10;99.90
21895;DHT22;11112;51.270;7.224;2023-02-12T15:26:58;10.10;99.90
21895;DHT22;11112;51.270;7.224;2023-02-12T15:29:38;10.10;99.90
21895;DHT22;11112;51.270;7.224;2023-02-12T15:32:15;10.00;99.90
21895;DHT22;11112;51.270;7.224;2023-02-12T15:34:47;10.10;99.90
21895;DHT22;11112;51.270;7.224;2023-02-12T15:37:21;10.10;99.90
21895;DHT22;11112;51.270;7.224;2023-02-12T15:39:52;10.00;99.90
21895;DHT22;11112;51.270;7.224;2023-02-12T15:42:30;10.00;99.90
21895;DHT22;11112;51.270;7.224;2023-02-12T15:45:15;10.00;99.90
21895;DHT22;11112;51.270;7.224;2023-02-12T15:47:46;10.00;99.90
21895;DHT22;11112;51.270;7.224;2023-02-12T15:50:22;10.00;99.90
21895;DHT22;11112;51.270;7.224;2023-02-12T15:52:53;10.00;99.90
21895;DHT22;11112;51.270;7.224;2023-02-12T15:55:25;10.10;99.90
21895;DHT22;11112;51.270;7.224;2023-02-12T15:57:54;10.10;99.90
21895;DHT22;11112;51.270;7.224;2023-02-12T16:00:29;10.10;99.90
21895;DHT22;11112;51.270;7.224;2023-02-12T16:03:02;10.10;99.90
21895;DHT22;11112;51.270;7.224;2023-02-12T16:05:42;10.10;99.90
21895;DHT22;11112;51.270;7.224;2023-02-12T16:08:14;10.10;99.90
21895;DHT22;11112;51.270;7.224;2023-02-12T16:10:43;10.10;99.90
21895;DHT22;11112;51.270;7.224;2023-02-12T16:13:15;10.10;99.90
21895;DHT22;11112;51.270;7.224;2023-02-12T16:15:44;10.00;99.90
21895;DHT22;11112;51.270;7.224;2023-02-12T16:18:29;10.00;99.90
21895;DHT22;11112;51.270;7.224;2023-02-12T16:21:04;10.00;99.90
21895;DHT22;11112;51.270;7.224;2023-02-12T16:23:35;10.10;99.90
21895;DHT22;11112;51.270;7.224;2023-02-12T16:26:03;10.00;99.90
21895;DHT22;11112;51.270;7.224;2023-02-12T16:28:31;10.00;99.90
21895;DHT22;11112;51.270;7.224;2023-02-12T16:31:10;10.00;99.90
21895;DHT22;11112;51.270;7.224;2023-02-12T16:33:46;10.10;99.90
21895;DHT22;11112;51.270;7.224;2023-02-12T16:36:27;10.10;99.90
21895;DHT22;11112;51.270;7.224;2023-02-12T16:38:59;10.00;99.90